sensor_id;sensor_type;location;lat;lon;timestamp;P1;durP1;ratioP1;P2;durP2;ratioP2
29422;SDS011;16399;51.686;8.684;2022-10-30T00:00:44;13.55;;;3.75;;
29422;SDS011;16399;51.686;8.684;2022-10-30T00:03:48;17.62;;;3.60;;
29422;SDS011;16399;51.686;8.684;2022-10-30T00:06:50;10.65;;;4.42;;
29422;SDS011;16399;51.686;8.684;2022-10-30T00:09:52;17.73;;;4.37;;
29422;SDS011;16399;51.686;8.684;2022-10-30T00:12:55;21.27;;;4.47;;
29422;SDS011;16399;51.686;8.684;2022-10-30T00:15:57;13.93;;;4.22;;
29422;SDS011;16399;51.686;8.684;2022-10-30T00:19:00;10.75;;;4.05;;
29422;SDS011;16399;51.686;8.684;2022-10-30T00:22:02;13.00;;;4.20;;
29422;SDS011;16399;51.686;8.684;2022-10-30T00:25:05;14.65;;;4.20;;
29422;SDS011;16399;51.686;8.684;2022-10-30T00:28:07;17.20;;;4.45;;
29422;SDS011;16399;51.686;8.684;2022-10-30T00:31:09;14.47;;;4.60;;
29422;SDS011;16399;51.686;8.684;2022-10-30T00:34:12;12.63;;;4.45;;
29422;SDS011;16399;51.686;8.684;2022-10-30T00:37:14;16.12;;;5.08;;
29422;SDS011;16399;51.686;8.684;2022-10-30T00:40:17;11.60;;;3.58;;
29422;SDS011;16399;51.686;8.684;2022-10-30T00:43:33;15.63;;;4.55;;
29422;SDS011;16399;51.686;8.684;2022-10-30T00:46:38;17.87;;;4.70;;
29422;SDS011;16399;51.686;8.684;2022-10-30T00:53:12;13.72;;;4.15;;
29422;SDS011;16399;51.686;8.684;2022-10-30T00:56:17;18.62;;;4.50;;
29422;SDS011;16399;51.686;8.684;2022-10-30T00:59:23;17.12;;;4.22;;
29422;SDS011;16399;51.686;8.684;2022-10-30T01:02:27;12.68;;;4.33;;
29422;SDS011;16399;51.686;8.684;2022-10-30T01:05:29;14.30;;;4.12;;
29422;SDS011;16399;51.686;8.684;2022-10-30T01:08:33;11.15;;;4.08;;
29422;SDS011;16399;51.686;8.684;2022-10-30T01:11:37;15.15;;;4.50;;
29422;SDS011;16399;51.686;8.684;2022-10-30T01:14:40;15.20;;;4.50;;
29422;SDS011;16399;51.686;8.684;2022-10-30T01:21:18;19.17;;;4.50;;
29422;SDS011;16399;51.686;8.684;2022-10-30T01:27:45;14.45;;;4.17;;
29422;SDS011;16399;51.686;8.684;2022-10-30T01:30:53;19.90;;;4.50;;
29422;SDS011;16399;51.686;8.684;2022-10-30T01:34:12;11.63;;;4.78;;
29422;SDS011;16399;51.686;8.684;2022-10-30T01:37:37;18.13;;;4.50;;
29422;SDS011;16399;51.686;8.684;2022-10-30T01:40:42;11.25;;;3.60;;
29422;SDS011;16399;51.686;8.684;2022-10-30T01:47:03;17.27;;;4.50;;
29422;SDS011;16399;51.686;8.684;2022-10-30T01:50:08;14.33;;;4.53;;
29422;SDS011;16399;51.686;8.684;2022-10-30T01:53:24;10.15;;;3.87;;
29422;SDS011;16399;51.686;8.684;2022-10-30T01:59:57;12.65;;;4.40;;
29422;SDS011;16399;51.686;8.684;2022-10-30T02:02:56;10.32;;;3.62;;
29422;SDS011;16399;51.686;8.684;2022-10-30T02:05:59;23.15;;;4.75;;
29422;SDS011;16399;51.686;8.684;2022-10-30T02:09:02;18.00;;;4.72;;
29422;SDS011;16399;51.686;8.684;2022-10-30T02:12:05;23.30;;;5.05;;
29422;SDS011;16399;51.686;8.684;2022-10-30T02:15:08;14.65;;;4.60;;
29422;SDS011;16399;51.686;8.684;2022-10-30T02:18:11;10.88;;;4.33;;
29422;SDS011;16399;51.686;8.684;2022-10-30T02:21:13;17.23;;;4.35;;
29422;SDS011;16399;51.686;8.684;2022-10-30T02:24:16;11.50;;;4.40;;
29422;SDS011;16399;51.686;8.684;2022-10-30T02:27:18;15.00;;;4.60;;
29422;SDS011;16399;51.686;8.684;2022-10-30T02:30:21;25.65;;;4.50;;
29422;SDS011;16399;51.686;8.684;2022-10-30T02:33:23;11.85;;;3.90;;
29422;SDS011;16399;51.686;8.684;2022-10-30T02:36:25;15.58;;;4.58;;
29422;SDS011;16399;51.686;8.684;2022-10-30T02:39:28;10.95;;;4.33;;
29422;SDS011;16399;51.686;8.684;2022-10-30T02:42:30;14.83;;;4.47;;
29422;SDS011;16399;51.686;8.684;2022-10-30T02:45:32;15.55;;;5.03;;
29422;SDS011;16399;51.686;8.684;2022-10-30T02:48:35;12.30;;;4.25;;
29422;SDS011;16399;51.686;8.684;2022-10-30T02:51:37;10.98;;;3.95;;
29422;SDS011;16399;51.686;8.684;2022-10-30T02:54:39;11.50;;;4.20;;
29422;SDS011;16399;51.686;8.684;2022-10-30T02:57:41;11.95;;;4.42;;
29422;SDS011;16399;51.686;8.684;2022-10-30T03:00:44;13.98;;;4.17;;
29422;SDS011;16399;51.686;8.684;2022-10-30T03:03:46;15.30;;;4.70;;
29422;SDS011;16399;51.686;8.684;2022-10-30T03:06:48;13.28;;;4.10;;
29422;SDS011;16399;51.686;8.684;2022-10-30T03:09:51;13.48;;;4.45;;
29422;SDS011;16399;51.686;8.684;2022-10-30T03:12:54;15.18;;;5.25;;
29422;SDS011;16399;51.686;8.684;2022-10-30T03:16:03;11.48;;;4.45;;
29422;SDS011;16399;51.686;8.684;2022-10-30T03:19:07;12.28;;;4.67;;
29422;SDS011;16399;51.686;8.684;2022-10-30T03:22:09;11.40;;;4.45;;
29422;SDS011;16399;51.686;8.684;2022-10-30T03:25:11;18.70;;;4.67;;
29422;SDS011;16399;51.686;8.684;2022-10-30T03:28:14;12.78;;;3.95;;
29422;SDS011;16399;51.686;8.684;2022-10-30T03:31:16;22.15;;;5.95;;
29422;SDS011;16399;51.686;8.684;2022-10-30T03:34:20;20.77;;;5.00;;
29422;SDS011;16399;51.686;8.684;2022-10-30T03:37:22;15.15;;;4.05;;
29422;SDS011;16399;51.686;8.684;2022-10-30T03:40:25;20.40;;;4.37;;
29422;SDS011;16399;51.686;8.684;2022-10-30T03:43:27;13.30;;;4.40;;
29422;SDS011;16399;51.686;8.684;2022-10-30T03:46:30;13.58;;;4.47;;
29422;SDS011;16399;51.686;8.684;2022-10-30T03:49:32;16.05;;;4.40;;
29422;SDS011;16399;51.686;8.684;2022-10-30T03:52:34;13.62;;;4.28;;
29422;SDS011;16399;51.686;8.684;2022-10-30T03:55:37;13.05;;;4.15;;
29422;SDS011;16399;51.686;8.684;2022-10-30T03:58:40;15.40;;;4.85;;
29422;SDS011;16399;51.686;8.684;2022-10-30T04:01:42;11.57;;;4.37;;
29422;SDS011;16399;51.686;8.684;2022-10-30T04:04:44;12.58;;;4.37;;
29422;SDS011;16399;51.686;8.684;2022-10-30T04:07:47;16.37;;;4.90;;
29422;SDS011;16399;51.686;8.684;2022-10-30T04:10:49;17.55;;;4.70;;
29422;SDS011;16399;51.686;8.684;2022-10-30T04:13:51;14.43;;;4.20;;
29422;SDS011;16399;51.686;8.684;2022-10-30T04:16:54;12.93;;;4.12;;
29422;SDS011;16399;51.686;8.684;2022-10-30T04:19:56;13.40;;;4.42;;
29422;SDS011;16399;51.686;8.684;2022-10-30T04:22:59;20.92;;;4.75;;
29422;SDS011;16399;51.686;8.684;2022-10-30T04:26:03;21.40;;;4.67;;
29422;SDS011;16399;51.686;8.684;2022-10-30T04:29:05;11.93;;;4.35;;
29422;SDS011;16399;51.686;8.684;2022-10-30T04:32:08;15.55;;;4.53;;
29422;SDS011;16399;51.686;8.684;2022-10-30T04:35:10;12.30;;;4.37;;
29422;SDS011;16399;51.686;8.684;2022-10-30T04:38:14;17.02;;;4.65;;
29422;SDS011;16399;51.686;8.684;2022-10-30T04:41:18;20.15;;;4.83;;
29422;SDS011;16399;51.686;8.684;2022-10-30T04:44:20;23.07;;;4.60;;
29422;SDS011;16399;51.686;8.684;2022-10-30T04:47:23;17.75;;;4.95;;
29422;SDS011;16399;51.686;8.684;2022-10-30T04:50:25;16.87;;;4.55;;
29422;SDS011;16399;51.686;8.684;2022-10-30T04:53:27;13.32;;;4.60;;
29422;SDS011;16399;51.686;8.684;2022-10-30T04:56:29;14.13;;;4.55;;
29422;SDS011;16399;51.686;8.684;2022-10-30T04:59:34;17.35;;;4.33;;
29422;SDS011;16399;51.686;8.684;2022-10-30T05:02:37;11.45;;;4.17;;
29422;SDS011;16399;51.686;8.684;2022-10-30T05:05:39;17.57;;;4.40;;
29422;SDS011;16399;51.686;8.684;2022-10-30T05:08:42;15.58;;;4.97;;
29422;SDS011;16399;51.686;8.684;2022-10-30T05:11:44;17.48;;;5.22;;
29422;SDS011;16399;51.686;8.684;2022-10-30T05:14:47;21.57;;;4.42;;
29422;SDS011;16399;51.686;8.684;2022-10-30T05:17:50;16.40;;;4.72;;
29422;SDS011;16399;51.686;8.684;2022-10-30T05:20:53;11.50;;;3.98;;
29422;SDS011;16399;51.686;8.684;2022-10-30T05:23:55;15.83;;;4.40;;
29422;SDS011;16399;51.686;8.684;2022-10-30T05:26:57;16.90;;;4.58;;
29422;SDS011;16399;51.686;8.684;2022-10-30T05:30:00;15.98;;;4.28;;
29422;SDS011;16399;51.686;8.684;2022-10-30T05:33:06;17.17;;;4.83;;
29422;SDS011;16399;51.686;8.684;2022-10-30T05:36:10;13.78;;;4.20;;
29422;SDS011;16399;51.686;8.684;2022-10-30T05:39:12;18.35;;;4.45;;
29422;SDS011;16399;51.686;8.684;2022-10-30T05:42:15;12.05;;;4.20;;
29422;SDS011;16399;51.686;8.684;2022-10-30T05:45:17;19.23;;;4.60;;
29422;SDS011;16399;51.686;8.684;2022-10-30T05:48:20;14.75;;;4.47;;
29422;SDS011;16399;51.686;8.684;2022-10-30T05:51:22;16.23;;;4.75;;
29422;SDS011;16399;51.686;8.684;2022-10-30T05:54:24;14.15;;;4.05;;
29422;SDS011;16399;51.686;8.684;2022-10-30T05:57:27;19.85;;;4.67;;
29422;SDS011;16399;51.686;8.684;2022-10-30T06:00:30;13.25;;;4.17;;
29422;SDS011;16399;51.686;8.684;2022-10-30T06:06:36;20.75;;;4.90;;
29422;SDS011;16399;51.686;8.684;2022-10-30T06:09:38;11.90;;;4.72;;
29422;SDS011;16399;51.686;8.684;2022-10-30T06:12:40;19.10;;;4.35;;
29422;SDS011;16399;51.686;8.684;2022-10-30T06:15:43;10.43;;;3.80;;
29422;SDS011;16399;51.686;8.684;2022-10-30T06:18:46;11.08;;;4.83;;
29422;SDS011;16399;51.686;8.684;2022-10-30T06:21:48;13.85;;;4.45;;
29422;SDS011;16399;51.686;8.684;2022-10-30T06:24:50;13.62;;;4.30;;
29422;SDS011;16399;51.686;8.684;2022-10-30T06:27:53;8.90;;;4.10;;
29422;SDS011;16399;51.686;8.684;2022-10-30T06:30:55;17.48;;;4.22;;
29422;SDS011;16399;51.686;8.684;2022-10-30T06:33:57;20.88;;;4.25;;
29422;SDS011;16399;51.686;8.684;2022-10-30T06:37:00;12.63;;;4.33;;
29422;SDS011;16399;51.686;8.684;2022-10-30T06:40:02;16.62;;;3.92;;
29422;SDS011;16399;51.686;8.684;2022-10-30T06:43:06;15.53;;;5.10;;
29422;SDS011;16399;51.686;8.684;2022-10-30T06:46:09;13.22;;;4.47;;
29422;SDS011;16399;51.686;8.684;2022-10-30T06:49:11;12.35;;;4.45;;
29422;SDS011;16399;51.686;8.684;2022-10-30T06:52:14;14.53;;;4.33;;
29422;SDS011;16399;51.686;8.684;2022-10-30T06:55:16;14.40;;;4.40;;
29422;SDS011;16399;51.686;8.684;2022-10-30T06:58:19;12.10;;;4.10;;
29422;SDS011;16399;51.686;8.684;2022-10-30T07:01:21;16.87;;;4.33;;
29422;SDS011;16399;51.686;8.684;2022-10-30T07:04:23;12.75;;;4.97;;
29422;SDS011;16399;51.686;8.684;2022-10-30T07:07:25;13.00;;;4.17;;
29422;SDS011;16399;51.686;8.684;2022-10-30T07:10:28;16.17;;;4.35;;
29422;SDS011;16399;51.686;8.684;2022-10-30T07:13:30;12.80;;;4.25;;
29422;SDS011;16399;51.686;8.684;2022-10-30T07:16:32;14.60;;;4.90;;
29422;SDS011;16399;51.686;8.684;2022-10-30T07:19:35;16.93;;;4.65;;
29422;SDS011;16399;51.686;8.684;2022-10-30T07:22:37;15.93;;;4.40;;
29422;SDS011;16399;51.686;8.684;2022-10-30T07:25:40;16.07;;;4.20;;
29422;SDS011;16399;51.686;8.684;2022-10-30T07:28:42;17.73;;;4.75;;
29422;SDS011;16399;51.686;8.684;2022-10-30T07:31:45;15.40;;;4.00;;
29422;SDS011;16399;51.686;8.684;2022-10-30T07:34:49;18.45;;;4.58;;
29422;SDS011;16399;51.686;8.684;2022-10-30T07:37:51;19.80;;;4.70;;
29422;SDS011;16399;51.686;8.684;2022-10-30T07:40:54;20.60;;;4.20;;
29422;SDS011;16399;51.686;8.684;2022-10-30T07:43:56;12.15;;;4.37;;
29422;SDS011;16399;51.686;8.684;2022-10-30T07:46:58;13.72;;;4.30;;
29422;SDS011;16399;51.686;8.684;2022-10-30T07:50:01;17.82;;;4.60;;
29422;SDS011;16399;51.686;8.684;2022-10-30T07:53:03;11.83;;;4.60;;
29422;SDS011;16399;51.686;8.684;2022-10-30T07:56:05;18.35;;;4.58;;
29422;SDS011;16399;51.686;8.684;2022-10-30T07:59:08;13.58;;;4.35;;
29422;SDS011;16399;51.686;8.684;2022-10-30T08:02:10;18.75;;;4.33;;
29422;SDS011;16399;51.686;8.684;2022-10-30T08:05:12;14.23;;;4.35;;
29422;SDS011;16399;51.686;8.684;2022-10-30T08:08:15;13.05;;;4.03;;
29422;SDS011;16399;51.686;8.684;2022-10-30T08:11:17;19.27;;;4.60;;
29422;SDS011;16399;51.686;8.684;2022-10-30T08:14:19;15.93;;;4.05;;
29422;SDS011;16399;51.686;8.684;2022-10-30T08:17:21;16.25;;;4.30;;
29422;SDS011;16399;51.686;8.684;2022-10-30T08:20:24;9.68;;;4.42;;
29422;SDS011;16399;51.686;8.684;2022-10-30T08:23:26;12.53;;;4.25;;
29422;SDS011;16399;51.686;8.684;2022-10-30T08:26:28;9.00;;;3.90;;
29422;SDS011;16399;51.686;8.684;2022-10-30T08:29:31;13.58;;;3.70;;
29422;SDS011;16399;51.686;8.684;2022-10-30T08:32:35;14.53;;;3.92;;
29422;SDS011;16399;51.686;8.684;2022-10-30T08:35:37;16.75;;;4.47;;
29422;SDS011;16399;51.686;8.684;2022-10-30T08:38:41;12.00;;;4.22;;
29422;SDS011;16399;51.686;8.684;2022-10-30T08:41:43;20.37;;;4.92;;
29422;SDS011;16399;51.686;8.684;2022-10-30T08:44:46;18.82;;;4.40;;
29422;SDS011;16399;51.686;8.684;2022-10-30T08:47:55;11.57;;;3.65;;
29422;SDS011;16399;51.686;8.684;2022-10-30T08:50:58;15.15;;;3.40;;
29422;SDS011;16399;51.686;8.684;2022-10-30T08:54:01;14.75;;;4.03;;
29422;SDS011;16399;51.686;8.684;2022-10-30T08:57:03;14.00;;;3.70;;
29422;SDS011;16399;51.686;8.684;2022-10-30T09:00:06;13.60;;;4.15;;
29422;SDS011;16399;51.686;8.684;2022-10-30T09:03:09;8.18;;;3.60;;
29422;SDS011;16399;51.686;8.684;2022-10-30T09:06:11;13.00;;;3.72;;
29422;SDS011;16399;51.686;8.684;2022-10-30T09:09:13;16.67;;;4.30;;
29422;SDS011;16399;51.686;8.684;2022-10-30T09:12:16;15.85;;;4.78;;
29422;SDS011;16399;51.686;8.684;2022-10-30T09:15:19;14.58;;;3.83;;
29422;SDS011;16399;51.686;8.684;2022-10-30T09:18:21;11.55;;;4.00;;
29422;SDS011;16399;51.686;8.684;2022-10-30T09:21:24;11.55;;;3.58;;
29422;SDS011;16399;51.686;8.684;2022-10-30T09:24:26;14.00;;;3.80;;
29422;SDS011;16399;51.686;8.684;2022-10-30T09:27:28;11.18;;;3.60;;
29422;SDS011;16399;51.686;8.684;2022-10-30T09:30:30;13.13;;;4.08;;
29422;SDS011;16399;51.686;8.684;2022-10-30T09:33:33;18.25;;;3.60;;
29422;SDS011;16399;51.686;8.684;2022-10-30T09:36:35;16.65;;;4.40;;
29422;SDS011;16399;51.686;8.684;2022-10-30T09:39:38;14.35;;;3.35;;
29422;SDS011;16399;51.686;8.684;2022-10-30T09:42:45;15.55;;;3.42;;
29422;SDS011;16399;51.686;8.684;2022-10-30T09:46:00;14.50;;;3.77;;
29422;SDS011;16399;51.686;8.684;2022-10-30T09:49:16;15.13;;;4.33;;
29422;SDS011;16399;51.686;8.684;2022-10-30T09:52:21;12.20;;;3.47;;
29422;SDS011;16399;51.686;8.684;2022-10-30T10:01:59;13.08;;;3.65;;
29422;SDS011;16399;51.686;8.684;2022-10-30T10:05:21;15.48;;;3.27;;
29422;SDS011;16399;51.686;8.684;2022-10-30T10:08:31;13.95;;;3.95;;
29422;SDS011;16399;51.686;8.684;2022-10-30T10:11:41;15.23;;;4.37;;
29422;SDS011;16399;51.686;8.684;2022-10-30T10:14:45;14.55;;;4.58;;
29422;SDS011;16399;51.686;8.684;2022-10-30T10:17:48;14.65;;;3.15;;
29422;SDS011;16399;51.686;8.684;2022-10-30T10:20:52;11.97;;;3.47;;
29422;SDS011;16399;51.686;8.684;2022-10-30T10:23:57;11.33;;;3.40;;
29422;SDS011;16399;51.686;8.684;2022-10-30T10:27:04;14.00;;;3.58;;
29422;SDS011;16399;51.686;8.684;2022-10-30T10:30:18;15.45;;;3.75;;
29422;SDS011;16399;51.686;8.684;2022-10-30T10:33:24;13.30;;;4.08;;
29422;SDS011;16399;51.686;8.684;2022-10-30T10:36:41;17.67;;;3.55;;
29422;SDS011;16399;51.686;8.684;2022-10-30T10:40:09;10.23;;;3.20;;
29422;SDS011;16399;51.686;8.684;2022-10-30T10:52:55;13.65;;;3.45;;
29422;SDS011;16399;51.686;8.684;2022-10-30T10:56:00;15.15;;;3.87;;
29422;SDS011;16399;51.686;8.684;2022-10-30T10:59:03;15.63;;;4.10;;
29422;SDS011;16399;51.686;8.684;2022-10-30T11:05:45;16.90;;;4.08;;
29422;SDS011;16399;51.686;8.684;2022-10-30T11:09:01;12.70;;;3.52;;
29422;SDS011;16399;51.686;8.684;2022-10-30T11:12:14;12.45;;;3.60;;
29422;SDS011;16399;51.686;8.684;2022-10-30T11:15:18;16.52;;;4.05;;
29422;SDS011;16399;51.686;8.684;2022-10-30T11:18:22;12.25;;;3.10;;
29422;SDS011;16399;51.686;8.684;2022-10-30T11:21:25;18.62;;;3.87;;
29422;SDS011;16399;51.686;8.684;2022-10-30T11:24:33;10.88;;;3.40;;
29422;SDS011;16399;51.686;8.684;2022-10-30T11:27:36;10.55;;;3.55;;
29422;SDS011;16399;51.686;8.684;2022-10-30T11:30:38;12.93;;;3.58;;
29422;SDS011;16399;51.686;8.684;2022-10-30T11:33:41;15.53;;;3.72;;
29422;SDS011;16399;51.686;8.684;2022-10-30T11:36:43;16.40;;;3.55;;
29422;SDS011;16399;51.686;8.684;2022-10-30T11:39:51;10.65;;;3.22;;
29422;SDS011;16399;51.686;8.684;2022-10-30T11:43:03;14.18;;;4.17;;
29422;SDS011;16399;51.686;8.684;2022-10-30T11:46:04;13.32;;;3.92;;
29422;SDS011;16399;51.686;8.684;2022-10-30T11:49:22;12.53;;;3.67;;
29422;SDS011;16399;51.686;8.684;2022-10-30T11:52:27;16.67;;;3.67;;
29422;SDS011;16399;51.686;8.684;2022-10-30T11:55:32;16.90;;;4.62;;
29422;SDS011;16399;51.686;8.684;2022-10-30T11:58:36;15.05;;;3.70;;
29422;SDS011;16399;51.686;8.684;2022-10-30T12:01:41;15.25;;;3.80;;
29422;SDS011;16399;51.686;8.684;2022-10-30T12:04:46;15.72;;;3.62;;
29422;SDS011;16399;51.686;8.684;2022-10-30T12:07:51;12.70;;;3.50;;
29422;SDS011;16399;51.686;8.684;2022-10-30T12:10:56;9.45;;;3.95;;
29422;SDS011;16399;51.686;8.684;2022-10-30T12:14:00;14.28;;;3.98;;
29422;SDS011;16399;51.686;8.684;2022-10-30T12:17:03;10.05;;;4.47;;
29422;SDS011;16399;51.686;8.684;2022-10-30T12:20:06;13.60;;;3.27;;
29422;SDS011;16399;51.686;8.684;2022-10-30T12:23:22;17.55;;;4.40;;
29422;SDS011;16399;51.686;8.684;2022-10-30T12:26:23;9.60;;;3.55;;
29422;SDS011;16399;51.686;8.684;2022-10-30T12:29:34;12.98;;;3.77;;
29422;SDS011;16399;51.686;8.684;2022-10-30T12:32:52;16.37;;;3.70;;
29422;SDS011;16399;51.686;8.684;2022-10-30T12:36:00;10.88;;;4.00;;
29422;SDS011;16399;51.686;8.684;2022-10-30T12:39:09;9.13;;;3.02;;
29422;SDS011;16399;51.686;8.684;2022-10-30T12:42:27;16.55;;;4.92;;
29422;SDS011;16399;51.686;8.684;2022-10-30T12:45:42;12.45;;;4.05;;
29422;SDS011;16399;51.686;8.684;2022-10-30T12:48:48;19.77;;;5.08;;
29422;SDS011;16399;51.686;8.684;2022-10-30T12:51:56;14.55;;;4.25;;
29422;SDS011;16399;51.686;8.684;2022-10-30T12:55:47;24.30;;;4.40;;
29422;SDS011;16399;51.686;8.684;2022-10-30T12:58:20;14.65;;;4.28;;
29422;SDS011;16399;51.686;8.684;2022-10-30T13:01:43;13.93;;;4.33;;
29422;SDS011;16399;51.686;8.684;2022-10-30T13:04:47;13.62;;;4.42;;
29422;SDS011;16399;51.686;8.684;2022-10-30T13:08:09;13.10;;;4.08;;
29422;SDS011;16399;51.686;8.684;2022-10-30T13:11:26;12.43;;;3.67;;
29422;SDS011;16399;51.686;8.684;2022-10-30T13:14:37;10.93;;;3.87;;
29422;SDS011;16399;51.686;8.684;2022-10-30T13:17:46;13.08;;;3.30;;
29422;SDS011;16399;51.686;8.684;2022-10-30T13:24:14;7.03;;;3.30;;
29422;SDS011;16399;51.686;8.684;2022-10-30T13:27:34;13.20;;;4.17;;
29422;SDS011;16399;51.686;8.684;2022-10-30T13:30:39;16.12;;;4.60;;
29422;SDS011;16399;51.686;8.684;2022-10-30T13:33:51;13.83;;;3.67;;
29422;SDS011;16399;51.686;8.684;2022-10-30T13:37:14;12.13;;;4.40;;
29422;SDS011;16399;51.686;8.684;2022-10-30T13:47:04;14.38;;;3.70;;
29422;SDS011;16399;51.686;8.684;2022-10-30T13:53:46;13.13;;;3.90;;
29422;SDS011;16399;51.686;8.684;2022-10-30T13:56:50;9.25;;;3.87;;
29422;SDS011;16399;51.686;8.684;2022-10-30T14:03:26;14.78;;;4.10;;
29422;SDS011;16399;51.686;8.684;2022-10-30T14:06:46;11.50;;;4.37;;
29422;SDS011;16399;51.686;8.684;2022-10-30T14:10:10;15.48;;;4.25;;
29422;SDS011;16399;51.686;8.684;2022-10-30T14:13:23;13.20;;;4.12;;
29422;SDS011;16399;51.686;8.684;2022-10-30T14:16:45;11.50;;;4.20;;
29422;SDS011;16399;51.686;8.684;2022-10-30T14:23:18;16.67;;;4.37;;
29422;SDS011;16399;51.686;8.684;2022-10-30T14:26:22;14.80;;;4.70;;
29422;SDS011;16399;51.686;8.684;2022-10-30T14:29:30;14.68;;;4.05;;
29422;SDS011;16399;51.686;8.684;2022-10-30T14:32:37;12.25;;;4.00;;
29422;SDS011;16399;51.686;8.684;2022-10-30T14:35:41;17.02;;;4.75;;
29422;SDS011;16399;51.686;8.684;2022-10-30T14:45:43;15.25;;;5.37;;
29422;SDS011;16399;51.686;8.684;2022-10-30T14:49:10;14.80;;;4.33;;
29422;SDS011;16399;51.686;8.684;2022-10-30T14:55:21;13.48;;;4.10;;
29422;SDS011;16399;51.686;8.684;2022-10-30T14:58:23;15.05;;;4.20;;
29422;SDS011;16399;51.686;8.684;2022-10-30T15:01:29;18.17;;;4.75;;
29422;SDS011;16399;51.686;8.684;2022-10-30T15:04:41;14.70;;;4.70;;
29422;SDS011;16399;51.686;8.684;2022-10-30T15:07:51;12.67;;;4.13;;
29422;SDS011;16399;51.686;8.684;2022-10-30T15:11:09;11.20;;;3.98;;
29422;SDS011;16399;51.686;8.684;2022-10-30T15:14:09;14.15;;;4.85;;
29422;SDS011;16399;51.686;8.684;2022-10-30T15:17:31;10.88;;;4.53;;
29422;SDS011;16399;51.686;8.684;2022-10-30T15:20:48;14.45;;;4.75;;
29422;SDS011;16399;51.686;8.684;2022-10-30T15:23:52;14.58;;;4.80;;
29422;SDS011;16399;51.686;8.684;2022-10-30T15:26:57;14.45;;;5.28;;
29422;SDS011;16399;51.686;8.684;2022-10-30T15:30:02;10.78;;;5.35;;
29422;SDS011;16399;51.686;8.684;2022-10-30T15:33:16;14.98;;;5.62;;
29422;SDS011;16399;51.686;8.684;2022-10-30T15:36:20;17.05;;;5.25;;
29422;SDS011;16399;51.686;8.684;2022-10-30T15:39:22;12.68;;;4.78;;
29422;SDS011;16399;51.686;8.684;2022-10-30T15:42:25;11.70;;;4.53;;
29422;SDS011;16399;51.686;8.684;2022-10-30T15:45:33;15.32;;;4.62;;
29422;SDS011;16399;51.686;8.684;2022-10-30T15:48:38;13.18;;;5.40;;
29422;SDS011;16399;51.686;8.684;2022-10-30T15:51:43;16.85;;;4.83;;
29422;SDS011;16399;51.686;8.684;2022-10-30T15:54:50;17.20;;;4.70;;
29422;SDS011;16399;51.686;8.684;2022-10-30T15:58:00;15.25;;;4.70;;
29422;SDS011;16399;51.686;8.684;2022-10-30T16:01:04;10.90;;;4.25;;
29422;SDS011;16399;51.686;8.684;2022-10-30T16:04:25;12.55;;;4.42;;
29422;SDS011;16399;51.686;8.684;2022-10-30T16:07:23;15.10;;;4.70;;
29422;SDS011;16399;51.686;8.684;2022-10-30T16:10:32;19.82;;;4.12;;
29422;SDS011;16399;51.686;8.684;2022-10-30T16:13:36;16.65;;;4.47;;
29422;SDS011;16399;51.686;8.684;2022-10-30T16:16:38;15.45;;;4.67;;
29422;SDS011;16399;51.686;8.684;2022-10-30T16:19:45;17.45;;;4.20;;
29422;SDS011;16399;51.686;8.684;2022-10-30T16:22:52;14.20;;;4.50;;
29422;SDS011;16399;51.686;8.684;2022-10-30T16:25:55;25.37;;;7.28;;
29422;SDS011;16399;51.686;8.684;2022-10-30T16:32:02;17.50;;;5.80;;
29422;SDS011;16399;51.686;8.684;2022-10-30T16:35:08;17.07;;;6.00;;
29422;SDS011;16399;51.686;8.684;2022-10-30T16:38:12;13.80;;;4.62;;
29422;SDS011;16399;51.686;8.684;2022-10-30T16:41:15;12.82;;;4.58;;
29422;SDS011;16399;51.686;8.684;2022-10-30T16:44:24;12.25;;;5.17;;
29422;SDS011;16399;51.686;8.684;2022-10-30T16:47:24;17.73;;;5.40;;
29422;SDS011;16399;51.686;8.684;2022-10-30T16:50:32;18.15;;;6.33;;
29422;SDS011;16399;51.686;8.684;2022-10-30T16:53:32;17.62;;;4.95;;
29422;SDS011;16399;51.686;8.684;2022-10-30T16:56:34;15.58;;;4.55;;
29422;SDS011;16399;51.686;8.684;2022-10-30T16:59:37;14.30;;;5.00;;
29422;SDS011;16399;51.686;8.684;2022-10-30T17:02:42;13.30;;;4.37;;
29422;SDS011;16399;51.686;8.684;2022-10-30T17:05:55;13.32;;;4.85;;
29422;SDS011;16399;51.686;8.684;2022-10-30T17:12:23;25.32;;;9.45;;
29422;SDS011;16399;51.686;8.684;2022-10-30T17:15:27;40.28;;;17.48;;
29422;SDS011;16399;51.686;8.684;2022-10-30T17:18:31;35.93;;;13.00;;
29422;SDS011;16399;51.686;8.684;2022-10-30T17:21:37;21.02;;;7.08;;
29422;SDS011;16399;51.686;8.684;2022-10-30T17:24:41;15.55;;;5.12;;
29422;SDS011;16399;51.686;8.684;2022-10-30T17:27:47;19.80;;;4.60;;
29422;SDS011;16399;51.686;8.684;2022-10-30T17:30:50;14.28;;;4.80;;
29422;SDS011;16399;51.686;8.684;2022-10-30T17:34:12;12.03;;;4.72;;
29422;SDS011;16399;51.686;8.684;2022-10-30T17:37:17;18.85;;;4.62;;
29422;SDS011;16399;51.686;8.684;2022-10-30T17:40:19;13.78;;;4.97;;
29422;SDS011;16399;51.686;8.684;2022-10-30T17:43:23;13.90;;;5.50;;
29422;SDS011;16399;51.686;8.684;2022-10-30T17:46:27;15.45;;;5.20;;
29422;SDS011;16399;51.686;8.684;2022-10-30T17:49:30;21.17;;;9.98;;
29422;SDS011;16399;51.686;8.684;2022-10-30T17:52:33;20.95;;;10.93;;
29422;SDS011;16399;51.686;8.684;2022-10-30T17:55:35;22.02;;;10.58;;
29422;SDS011;16399;51.686;8.684;2022-10-30T17:58:39;24.52;;;8.50;;
29422;SDS011;16399;51.686;8.684;2022-10-30T18:01:41;16.93;;;7.70;;
29422;SDS011;16399;51.686;8.684;2022-10-30T18:04:44;33.23;;;14.53;;
29422;SDS011;16399;51.686;8.684;2022-10-30T18:07:47;40.23;;;16.57;;
29422;SDS011;16399;51.686;8.684;2022-10-30T18:10:51;47.60;;;19.85;;
29422;SDS011;16399;51.686;8.684;2022-10-30T18:13:54;42.13;;;18.55;;
29422;SDS011;16399;51.686;8.684;2022-10-30T18:16:57;36.35;;;14.53;;
29422;SDS011;16399;51.686;8.684;2022-10-30T18:19:59;25.90;;;9.03;;
29422;SDS011;16399;51.686;8.684;2022-10-30T18:23:01;44.08;;;15.45;;
29422;SDS011;16399;51.686;8.684;2022-10-30T18:26:04;40.88;;;16.70;;
29422;SDS011;16399;51.686;8.684;2022-10-30T18:29:07;39.85;;;16.50;;
29422;SDS011;16399;51.686;8.684;2022-10-30T18:32:10;29.10;;;12.93;;
29422;SDS011;16399;51.686;8.684;2022-10-30T18:35:24;21.02;;;8.93;;
29422;SDS011;16399;51.686;8.684;2022-10-30T18:38:26;18.87;;;10.00;;
29422;SDS011;16399;51.686;8.684;2022-10-30T18:41:35;16.05;;;6.92;;
29422;SDS011;16399;51.686;8.684;2022-10-30T18:44:40;13.60;;;5.83;;
29422;SDS011;16399;51.686;8.684;2022-10-30T18:47:42;15.03;;;4.92;;
29422;SDS011;16399;51.686;8.684;2022-10-30T18:50:45;9.23;;;4.33;;
29422;SDS011;16399;51.686;8.684;2022-10-30T18:53:48;11.38;;;4.70;;
29422;SDS011;16399;51.686;8.684;2022-10-30T18:56:53;10.15;;;4.95;;
29422;SDS011;16399;51.686;8.684;2022-10-30T18:59:55;11.00;;;4.30;;
29422;SDS011;16399;51.686;8.684;2022-10-30T19:02:59;16.65;;;4.05;;
29422;SDS011;16399;51.686;8.684;2022-10-30T19:06:02;17.45;;;4.60;;
29422;SDS011;16399;51.686;8.684;2022-10-30T19:09:04;14.75;;;5.70;;
29422;SDS011;16399;51.686;8.684;2022-10-30T19:12:08;13.03;;;4.22;;
29422;SDS011;16399;51.686;8.684;2022-10-30T19:15:15;10.23;;;3.67;;
29422;SDS011;16399;51.686;8.684;2022-10-30T19:18:19;10.23;;;3.67;;
29422;SDS011;16399;51.686;8.684;2022-10-30T19:21:24;10.20;;;4.00;;
29422;SDS011;16399;51.686;8.684;2022-10-30T19:24:27;11.83;;;4.00;;
29422;SDS011;16399;51.686;8.684;2022-10-30T19:27:29;11.12;;;3.83;;
29422;SDS011;16399;51.686;8.684;2022-10-30T19:30:32;9.33;;;3.75;;
29422;SDS011;16399;51.686;8.684;2022-10-30T19:33:34;14.38;;;5.70;;